createdAt,value
2018-08-25T00:00:39.032Z,11.87
2018-08-25T00:03:08.493Z,13.10
2018-08-25T00:05:37.949Z,12.80
2018-08-25T00:08:07.554Z,12.47
2018-08-25T00:10:36.355Z,12.37
2018-08-25T00:13:05.245Z,13.23
2018-08-25T00:15:34.033Z,15.27
2018-08-25T00:18:03.135Z,14.73
2018-08-25T00:20:31.817Z,14.47
2018-08-25T00:23:00.511Z,14.60
2018-08-25T00:25:29.313Z,14.33
2018-08-25T00:27:57.997Z,14.40
2018-08-25T00:30:32.140Z,14.97
2018-08-25T00:33:00.942Z,15.17
2018-08-25T00:35:30.323Z,14.87
2018-08-25T00:37:59.176Z,14.40
2018-08-25T00:40:28.627Z,13.30
2018-08-25T00:42:57.420Z,14.17
2018-08-25T00:45:26.088Z,14.07
2018-08-25T00:47:55.873Z,14.00
2018-08-25T00:50:24.748Z,13.40
2018-08-25T00:52:53.870Z,13.10
2018-08-25T00:55:23.223Z,12.00
2018-08-25T00:57:51.913Z,12.13
2018-08-25T01:00:21.224Z,11.70
2018-08-25T01:02:50.319Z,11.87
2018-08-25T01:05:19.252Z,12.80
2018-08-25T01:07:48.049Z,17.77
2018-08-25T01:10:16.735Z,12.47
2018-08-25T01:12:45.498Z,10.87
2018-08-25T01:15:14.944Z,11.53
2018-08-25T01:17:44.094Z,12.30
2018-08-25T01:20:13.075Z,13.10
2018-08-25T01:22:41.809Z,13.53
2018-08-25T01:25:12.133Z,14.37
2018-08-25T01:27:40.818Z,13.20
2018-08-25T01:30:09.715Z,14.73
2018-08-25T01:32:38.422Z,14.27
2018-08-25T01:35:07.406Z,16.20
2018-08-25T01:37:36.193Z,15.77
2018-08-25T01:40:05.183Z,15.17
2018-08-25T01:42:33.860Z,16.10
2018-08-25T01:45:02.556Z,17.23
2018-08-25T01:47:31.367Z,17.00
2018-08-25T01:50:00.268Z,18.00
2018-08-25T01:52:29.264Z,17.60
2018-08-25T01:54:58.767Z,17.27
2018-08-25T01:57:27.471Z,17.33
2018-08-25T01:59:56.837Z,17.57
2018-08-25T02:02:25.769Z,17.67
2018-08-25T02:04:54.457Z,17.20
2018-08-25T02:07:23.250Z,19.60
2018-08-25T02:09:52.046Z,20.43
2018-08-25T02:12:20.939Z,20.47
2018-08-25T02:14:49.823Z,20.57
2018-08-25T02:17:18.479Z,22.93
2018-08-25T02:19:47.311Z,23.50
2018-08-25T02:22:16.133Z,22.13
2018-08-25T02:24:45.561Z,20.27
2018-08-25T02:27:15.322Z,19.13
2018-08-25T02:29:44.078Z,21.53
2018-08-25T02:32:12.863Z,20.07
2018-08-25T02:34:41.719Z,25.70
2018-08-25T02:37:10.616Z,21.47
2018-08-25T02:39:40.035Z,15.70
2018-08-25T02:42:08.915Z,15.23
2018-08-25T02:44:38.016Z,14.43
2018-08-25T02:47:06.704Z,15.40
2018-08-25T02:49:35.496Z,14.70
2018-08-25T02:52:04.398Z,15.07
2018-08-25T02:54:33.185Z,15.20
2018-08-25T02:57:02.451Z,15.67
2018-08-25T02:59:31.387Z,13.43
2018-08-25T03:02:00.036Z,14.30
2018-08-25T03:04:28.877Z,14.73
2018-08-25T03:06:57.663Z,15.63
2018-08-25T03:09:26.351Z,15.47
2018-08-25T03:11:55.008Z,17.33
2018-08-25T03:14:23.703Z,15.93
2018-08-25T03:16:52.724Z,17.33
2018-08-25T03:19:21.908Z,15.37
2018-08-25T03:21:50.559Z,14.93
2018-08-25T03:24:20.385Z,15.37
2018-08-25T03:26:49.249Z,17.03
2018-08-25T03:29:18.023Z,15.13
2018-08-25T03:31:46.954Z,14.07
2018-08-25T03:34:15.728Z,14.93
2018-08-25T03:36:44.599Z,15.63
2018-08-25T03:39:14.537Z,16.17
2018-08-25T03:41:43.336Z,16.97
2018-08-25T03:44:12.386Z,15.30
2018-08-25T03:46:41.377Z,16.67
2018-08-25T03:49:11.252Z,16.60
2018-08-25T03:51:39.937Z,16.47
2018-08-25T03:54:08.766Z,16.77
2018-08-25T03:56:37.440Z,16.80
2018-08-25T03:59:06.318Z,15.37
2018-08-25T04:01:35.777Z,17.93
2018-08-25T04:04:04.574Z,18.73
2018-08-25T04:06:33.317Z,19.70
2018-08-25T04:09:02.138Z,19.47
2018-08-25T04:11:30.933Z,19.10
2018-08-25T04:13:59.903Z,20.83
2018-08-25T04:16:29.135Z,21.27
2018-08-25T04:18:58.120Z,19.67
2018-08-25T04:21:27.491Z,18.60
2018-08-25T04:23:56.329Z,18.80
2018-08-25T04:26:26.053Z,18.73
2018-08-25T04:28:54.793Z,19.30
2018-08-25T04:31:23.802Z,19.40
2018-08-25T04:33:52.502Z,18.93
2018-08-25T04:36:21.400Z,17.60
2018-08-25T04:38:50.911Z,16.80
2018-08-25T04:41:20.044Z,17.37
2018-08-25T04:43:49.108Z,18.20
2018-08-25T04:46:17.802Z,17.53
2018-08-25T04:48:46.695Z,17.03
2018-08-25T04:51:15.991Z,16.97
2018-08-25T04:53:45.442Z,16.87
2018-08-25T04:56:14.194Z,17.13
2018-08-25T04:58:42.992Z,17.27
2018-08-25T05:01:12.608Z,17.90
2018-08-25T05:03:41.301Z,16.70
2018-08-25T05:06:10.212Z,17.93
2018-08-25T05:08:39.213Z,17.93
2018-08-25T05:11:08.701Z,17.63
2018-08-25T05:13:37.589Z,17.40
2018-08-25T05:16:06.627Z,17.43
2018-08-25T05:18:36.122Z,16.57
2018-08-25T05:21:05.393Z,19.03
2018-08-25T05:23:34.202Z,18.37
2018-08-25T05:26:03.700Z,19.87
2018-08-25T05:28:32.699Z,18.83
2018-08-25T05:31:01.606Z,18.23
2018-08-25T05:33:30.288Z,19.43
2018-08-25T05:35:59.515Z,19.33
2018-08-25T05:38:28.320Z,22.07
2018-08-25T05:40:57.189Z,19.00
2018-08-25T05:43:25.986Z,20.20
2018-08-25T05:45:54.768Z,19.50
2018-08-25T05:48:23.450Z,19.97
2018-08-25T05:50:52.510Z,19.67
2018-08-25T05:53:21.179Z,18.53
2018-08-25T05:55:50.647Z,19.60
2018-08-25T05:58:19.563Z,19.00
2018-08-25T06:00:49.074Z,18.07
2018-08-25T06:03:18.583Z,18.50
2018-08-25T06:05:47.511Z,17.93
2018-08-25T06:08:16.363Z,18.67
2018-08-25T06:10:45.158Z,18.20
2018-08-25T06:13:14.740Z,20.03
2018-08-25T06:15:43.571Z,19.10
2018-08-25T06:18:12.243Z,19.07
2018-08-25T06:33:40.513Z,19.23
2018-08-25T06:36:10.194Z,19.60
2018-08-25T06:38:39.548Z,20.13
2018-08-25T06:41:08.452Z,19.17
2018-08-25T06:43:37.717Z,19.80
2018-08-25T06:46:08.683Z,19.93
2018-08-25T06:48:39.833Z,19.90
2018-08-25T06:51:09.014Z,20.30
2018-08-25T06:53:38.195Z,20.30
2018-08-25T06:56:06.903Z,21.57
2018-08-25T06:58:35.624Z,20.20
2018-08-25T07:01:04.506Z,20.50
2018-08-25T07:03:33.332Z,20.43
2018-08-25T07:06:02.816Z,19.07
2018-08-25T07:08:32.867Z,21.00
2018-08-25T07:11:01.614Z,18.80
2018-08-25T07:13:30.333Z,19.73
2018-08-25T07:15:59.195Z,18.40
2018-08-25T07:18:28.004Z,19.47
2018-08-25T07:20:56.788Z,17.87
2018-08-25T07:23:25.590Z,17.93
2018-08-25T07:25:54.500Z,17.10
2018-08-25T07:28:23.935Z,16.47
2018-08-25T07:30:52.794Z,18.70
2018-08-25T07:33:21.582Z,17.23
2018-08-25T07:35:50.382Z,17.87
2018-08-25T07:38:19.318Z,17.67
2018-08-25T07:40:48.844Z,17.47
2018-08-25T07:43:17.679Z,18.27
2018-08-25T07:45:46.448Z,17.37
2018-08-25T07:48:15.264Z,16.27
2018-08-25T07:50:44.076Z,18.87
2018-08-25T07:53:12.953Z,16.00
2018-08-25T07:55:42.044Z,17.40
2018-08-25T07:58:11.780Z,17.73
2018-08-25T08:00:40.564Z,18.93
2018-08-25T08:03:09.437Z,17.80
2018-08-25T08:05:39.268Z,17.50
2018-08-25T08:08:09.300Z,18.03
2018-08-25T08:10:38.079Z,16.47
2018-08-25T08:13:06.989Z,17.73
2018-08-25T08:15:37.330Z,14.68
2018-08-25T08:18:07.336Z,16.75
2018-08-25T08:20:36.718Z,16.42
2018-08-25T08:23:06.798Z,16.40
2018-08-25T08:25:36.213Z,16.52
2018-08-25T08:28:06.483Z,16.25
2018-08-25T08:30:35.858Z,16.10
2018-08-25T08:33:05.352Z,15.45
2018-08-25T08:35:34.937Z,14.18
2018-08-25T08:38:04.404Z,16.07
2018-08-25T08:40:33.750Z,15.68
2018-08-25T08:43:03.147Z,15.38
2018-08-25T08:45:32.823Z,15.65
2018-08-25T08:48:02.259Z,16.30
2018-08-25T08:50:31.781Z,13.38
2018-08-25T08:53:01.854Z,12.95
2018-08-25T08:55:31.861Z,13.18
2018-08-25T08:58:01.335Z,12.75
2018-08-25T09:00:30.983Z,13.30
2018-08-25T09:03:00.311Z,12.78
2018-08-25T09:05:30.836Z,12.47
2018-08-25T09:08:00.104Z,13.45
2018-08-25T09:10:29.389Z,13.18
2018-08-25T09:12:59.156Z,13.48
2018-08-25T09:15:29.586Z,13.38
2018-08-25T09:17:59.764Z,12.63
2018-08-25T09:20:29.081Z,13.20
2018-08-25T09:22:58.372Z,13.95
2018-08-25T09:25:27.688Z,14.40
2018-08-25T09:27:57.660Z,13.00
2018-08-25T09:30:27.369Z,11.57
2018-08-25T09:32:56.772Z,12.58
2018-08-25T09:35:26.145Z,14.18
2018-08-25T09:37:55.564Z,13.62
2018-08-25T09:40:24.912Z,13.55
2018-08-25T09:42:54.236Z,12.35
2018-08-25T09:45:24.955Z,13.35
2018-08-25T09:47:54.341Z,18.60
2018-08-25T09:50:23.901Z,12.20
2018-08-25T09:52:54.114Z,12.78
2018-08-25T09:55:23.656Z,15.25
2018-08-25T09:57:53.807Z,14.03
2018-08-25T10:00:23.071Z,12.88
2018-08-25T10:02:52.517Z,12.75
2018-08-25T10:05:21.938Z,15.10
2018-08-25T10:07:51.470Z,14.28
2018-08-25T10:10:20.901Z,14.75
2018-08-25T10:12:50.260Z,13.10
2018-08-25T10:15:19.949Z,14.60
2018-08-25T10:17:49.482Z,14.98
2018-08-25T10:20:19.758Z,13.55
2018-08-25T10:22:49.205Z,15.63
2018-08-25T10:25:18.660Z,15.88
2018-08-25T10:27:47.956Z,15.35
2018-08-25T10:30:17.860Z,15.00
2018-08-25T10:32:47.204Z,15.30
2018-08-25T10:35:17.436Z,16.52
2018-08-25T10:37:46.757Z,13.70
2018-08-25T10:40:16.158Z,13.83
2018-08-25T10:42:45.453Z,13.95
2018-08-25T10:45:14.758Z,12.95
2018-08-25T10:47:44.263Z,14.45
2018-08-25T10:50:13.565Z,14.03
2018-08-25T10:52:42.872Z,13.72
2018-08-25T10:55:12.157Z,14.60
2018-08-25T10:57:41.477Z,13.90
2018-08-25T11:00:10.989Z,14.47
2018-08-25T11:02:40.300Z,13.85
2018-08-25T11:05:09.706Z,12.73
2018-08-25T11:07:40.078Z,12.68
2018-08-25T11:10:09.594Z,12.53
2018-08-25T11:12:39.291Z,12.93
2018-08-25T11:15:08.785Z,12.03
2018-08-25T11:17:38.797Z,14.00
2018-08-25T11:20:08.181Z,11.90
2018-08-25T11:22:37.506Z,12.40
2018-08-25T11:25:07.933Z,12.78
2018-08-25T11:27:37.339Z,11.95
2018-08-25T11:30:06.952Z,13.05
2018-08-25T11:32:36.287Z,14.10
2018-08-25T11:35:06.814Z,14.07
2018-08-25T11:37:36.399Z,14.05
2018-08-25T11:40:07.027Z,13.05
2018-08-25T11:42:36.701Z,12.30
2018-08-25T11:45:07.051Z,13.60
2018-08-25T11:47:37.148Z,13.05
2018-08-25T11:50:06.917Z,13.25
2018-08-25T11:52:36.323Z,12.93
2018-08-25T11:55:06.820Z,13.70
2018-08-25T11:57:36.938Z,11.45
2018-08-25T12:00:07.348Z,11.40
2018-08-25T12:02:36.934Z,12.07
2018-08-25T12:05:06.647Z,12.25
2018-08-25T12:07:36.672Z,12.00
2018-08-25T12:10:07.580Z,13.55
2018-08-25T12:12:36.859Z,14.35
2018-08-25T12:15:07.472Z,12.63
2018-08-25T12:17:37.310Z,12.07
2018-08-25T12:20:07.023Z,11.97
2018-08-25T12:34:34.409Z,13.40
2018-08-25T12:37:03.812Z,13.13
2018-08-25T12:39:33.251Z,13.18
2018-08-25T12:42:02.828Z,12.65
2018-08-25T12:44:32.122Z,12.98
2018-08-25T12:47:02.258Z,15.18
2018-08-25T12:49:31.609Z,14.05
2018-08-25T12:52:01.013Z,12.78
2018-08-25T12:54:30.298Z,12.88
2018-08-25T12:56:59.675Z,13.93
2018-08-25T12:59:29.145Z,12.88
2018-08-25T13:01:58.491Z,13.00
2018-08-25T13:04:28.487Z,13.98
2018-08-25T13:06:59.063Z,13.80
2018-08-25T13:09:29.256Z,13.40
2018-08-25T13:11:57.932Z,13.13
2018-08-25T13:14:27.772Z,12.95
2018-08-25T13:16:57.191Z,12.50
2018-08-25T13:19:26.599Z,13.40
2018-08-25T13:21:56.120Z,13.13
2018-08-25T13:24:26.315Z,12.73
2018-08-25T13:26:55.632Z,14.18
2018-08-25T13:29:25.855Z,13.32
2018-08-25T13:31:55.597Z,13.10
2018-08-25T13:34:25.193Z,12.50
2018-08-25T13:36:55.187Z,11.88
2018-08-25T13:39:24.621Z,12.25
2018-08-25T13:41:53.415Z,12.20
2018-08-25T13:44:22.994Z,14.17
2018-08-25T13:46:52.535Z,12.90
2018-08-25T13:49:21.942Z,12.47
2018-08-25T13:51:51.073Z,12.53
2018-08-25T13:54:19.933Z,13.20
2018-08-25T13:56:49.028Z,13.17
2018-08-25T13:59:17.735Z,14.13
2018-08-25T14:01:46.553Z,15.23
2018-08-25T14:04:15.523Z,13.30
2018-08-25T14:06:44.319Z,15.80
2018-08-25T14:09:13.228Z,12.87
2018-08-25T14:11:42.043Z,12.33
2018-08-25T14:14:11.413Z,14.10
2018-08-25T14:16:42.240Z,13.63
2018-08-25T14:19:11.509Z,14.37
2018-08-25T14:21:40.240Z,12.50
2018-08-25T14:24:09.036Z,13.13
2018-08-25T14:26:38.449Z,13.37
2018-08-25T14:29:07.547Z,15.70
2018-08-25T14:31:36.679Z,13.40
2018-08-25T14:34:06.257Z,15.97
2018-08-25T14:36:35.065Z,14.50
2018-08-25T14:39:05.524Z,15.37
2018-08-25T14:41:34.512Z,13.90
2018-08-25T14:44:04.416Z,12.93
2018-08-25T14:46:33.309Z,13.57
2018-08-25T14:49:02.667Z,12.63
2018-08-25T14:51:32.165Z,12.93
2018-08-25T14:54:01.010Z,12.87
2018-08-25T14:56:29.993Z,14.50
2018-08-25T14:58:59.787Z,12.75
2018-08-25T15:01:28.618Z,12.60
2018-08-25T15:03:58.732Z,13.43
2018-08-25T15:06:27.538Z,13.17
2018-08-25T15:08:56.841Z,13.23
2018-08-25T15:11:25.747Z,15.77
2018-08-25T15:13:54.692Z,11.77
2018-08-25T15:16:25.200Z,10.07
2018-08-25T15:18:54.282Z,8.03
2018-08-25T15:21:23.187Z,8.43
2018-08-25T15:23:51.957Z,12.53
2018-08-25T15:26:20.804Z,9.27
2018-08-25T15:28:50.221Z,9.53
2018-08-25T15:31:19.599Z,9.17
2018-08-25T15:33:48.443Z,10.93
2018-08-25T15:36:17.657Z,11.38
2018-08-25T15:38:47.069Z,8.95
2018-08-25T15:41:15.736Z,9.60
2018-08-25T15:43:45.172Z,10.45
2018-08-25T15:46:14.452Z,10.15
2018-08-25T15:48:43.184Z,9.13
2018-08-25T15:51:12.192Z,8.57
2018-08-25T15:53:41.055Z,8.80
2018-08-25T15:56:09.767Z,8.43
2018-08-25T15:58:38.643Z,10.40
2018-08-25T16:01:08.310Z,9.40
2018-08-25T16:03:38.537Z,8.00
2018-08-25T16:06:06.269Z,8.50
2018-08-25T16:08:35.353Z,9.67
2018-08-25T16:11:04.048Z,8.33
2018-08-25T16:13:32.901Z,9.07
2018-08-25T16:16:02.348Z,9.83
2018-08-25T16:18:31.178Z,9.30
2018-08-25T16:21:00.037Z,9.60
2018-08-25T16:23:28.818Z,10.00
2018-08-25T16:25:57.729Z,9.40
2018-08-25T16:28:27.031Z,10.17
2018-08-25T16:30:56.210Z,9.70
2018-08-25T16:33:25.039Z,9.57
2018-08-25T16:35:54.025Z,9.50
2018-08-25T16:38:23.323Z,11.37
2018-08-25T16:40:52.228Z,10.10
2018-08-25T16:43:21.222Z,10.93
2018-08-25T16:45:50.536Z,11.23
2018-08-25T16:48:20.039Z,9.13
2018-08-25T16:50:49.156Z,10.40
2018-08-25T16:53:19.287Z,8.60
2018-08-25T16:55:48.840Z,8.93
2018-08-25T16:58:17.873Z,8.20
2018-08-25T17:00:47.300Z,8.10
2018-08-25T17:03:16.787Z,7.77
2018-08-25T17:05:45.922Z,8.30
2018-08-25T17:08:14.898Z,11.73
2018-08-25T17:10:43.919Z,8.33
2018-08-25T17:13:14.150Z,10.43
2018-08-25T17:15:44.338Z,9.83
2018-08-25T17:18:13.922Z,10.17
2018-08-25T17:20:46.330Z,9.50
2018-08-25T17:23:15.719Z,9.13
2018-08-25T17:25:44.525Z,10.03
2018-08-25T17:28:13.830Z,10.37
2018-08-25T17:30:44.659Z,14.70
2018-08-25T17:33:13.475Z,10.03
2018-08-25T17:35:42.375Z,10.27
2018-08-25T17:38:11.892Z,11.53
2018-08-25T17:40:41.407Z,10.67
2018-08-25T17:43:10.178Z,10.57
2018-08-25T17:45:39.002Z,10.37
2018-08-25T17:48:08.055Z,11.27
2018-08-25T17:50:38.075Z,10.40
2018-08-25T17:53:07.175Z,11.63
2018-08-25T17:55:35.978Z,10.53
2018-08-25T17:58:04.770Z,11.90
2018-08-25T18:00:34.113Z,12.97
2018-08-25T18:03:03.283Z,12.33
2018-08-25T18:05:32.119Z,14.30
2018-08-25T18:08:01.160Z,15.90
2018-08-25T18:10:30.169Z,15.23
2018-08-25T18:12:59.150Z,15.33
2018-08-25T18:15:27.967Z,14.20
2018-08-25T18:17:56.891Z,13.40
2018-08-25T18:20:26.583Z,12.40
2018-08-25T18:22:55.371Z,12.60
2018-08-25T18:25:24.352Z,12.27
2018-08-25T18:27:54.082Z,12.40
2018-08-25T18:30:23.621Z,12.17
2018-08-25T18:32:52.716Z,11.20
2018-08-25T18:35:21.793Z,12.10
2018-08-25T18:37:50.793Z,11.27
2018-08-25T18:40:19.689Z,11.73
2018-08-25T18:42:48.367Z,12.10
2018-08-25T18:45:17.101Z,12.10
2018-08-25T18:47:46.162Z,11.93
2018-08-25T18:50:15.003Z,14.63
2018-08-25T18:52:44.274Z,12.20
2018-08-25T18:55:13.338Z,11.37
2018-08-25T18:57:42.743Z,11.83
2018-08-25T19:00:11.811Z,10.30
2018-08-25T19:02:40.663Z,12.57
2018-08-25T19:05:09.553Z,10.43
2018-08-25T19:07:38.260Z,10.23
2018-08-25T19:10:07.340Z,10.37
2018-08-25T19:12:36.039Z,9.83
2018-08-25T19:15:04.952Z,10.83
2018-08-25T19:17:35.425Z,9.90
2018-08-25T19:20:04.990Z,10.30
2018-08-25T19:22:33.771Z,10.10
2018-08-25T19:25:02.771Z,10.63
2018-08-25T19:27:31.565Z,12.30
2018-08-25T19:30:00.840Z,11.57
2018-08-25T19:32:29.573Z,11.60
2018-08-25T19:34:59.173Z,11.70
2018-08-25T19:37:28.083Z,12.50
2018-08-25T19:39:56.904Z,12.90
2018-08-25T19:42:25.764Z,14.23
2018-08-25T19:44:54.464Z,12.80
2018-08-25T19:47:23.352Z,11.60
2018-08-25T19:49:52.492Z,11.90
2018-08-25T19:52:21.248Z,11.03
2018-08-25T19:54:50.175Z,11.80
2018-08-25T19:57:18.947Z,10.67
2018-08-25T19:59:47.824Z,10.00
2018-08-25T20:02:16.850Z,10.63
2018-08-25T20:04:46.166Z,10.60
2018-08-25T20:07:14.852Z,10.63
2018-08-25T20:09:43.750Z,14.00
2018-08-25T20:12:12.515Z,17.30
2018-08-25T20:14:41.308Z,16.27
2018-08-25T20:17:10.298Z,17.03
2018-08-25T20:19:39.764Z,16.83
2018-08-25T20:22:09.632Z,14.40
2018-08-25T20:24:39.345Z,13.57
2018-08-25T20:27:08.752Z,12.50
2018-08-25T20:29:37.623Z,13.10
2018-08-25T20:32:07.000Z,12.90
2018-08-25T20:34:35.744Z,13.67
2018-08-25T20:37:04.524Z,16.13
2018-08-25T20:39:33.405Z,12.40
2018-08-25T20:42:02.315Z,14.33
2018-08-25T20:44:31.011Z,13.73
2018-08-25T20:46:59.668Z,14.93
2018-08-25T20:49:28.508Z,16.77
2018-08-25T20:51:57.607Z,13.13
2018-08-25T20:54:26.402Z,13.63
2018-08-25T20:56:55.413Z,12.80
2018-08-25T20:59:24.921Z,13.37
2018-08-25T21:01:53.706Z,12.90
2018-08-25T21:04:23.097Z,13.73
2018-08-25T21:06:51.820Z,14.17
2018-08-25T21:09:20.594Z,13.10
2018-08-25T21:11:49.288Z,13.97
2018-08-25T21:14:18.708Z,12.07
2018-08-25T21:16:47.650Z,14.03
2018-08-25T21:19:16.359Z,12.47
2018-08-25T21:21:45.066Z,13.50
2018-08-25T21:24:13.849Z,14.40
2018-08-25T21:26:42.537Z,13.37
2018-08-25T21:29:11.241Z,14.90
2018-08-25T21:31:40.334Z,14.27
2018-08-25T21:34:09.244Z,12.80
2018-08-25T21:36:38.779Z,13.97
2018-08-25T21:39:10.143Z,14.17
2018-08-25T21:41:38.935Z,15.63
2018-08-25T21:44:08.174Z,12.97
2018-08-25T21:46:36.929Z,13.47
2018-08-25T21:49:05.916Z,14.73
2018-08-25T21:51:35.836Z,16.80
2018-08-25T21:54:04.753Z,15.20
2018-08-25T21:56:33.496Z,12.87
2018-08-25T21:59:02.188Z,13.30
2018-08-25T22:01:37.059Z,14.33
2018-08-25T22:04:06.003Z,12.40
2018-08-25T22:06:35.633Z,13.57
2018-08-25T22:09:07.048Z,14.27
2018-08-25T22:11:35.882Z,12.03
2018-08-25T22:14:04.776Z,14.10
2018-08-25T22:16:34.183Z,14.17
2018-08-25T22:19:03.490Z,12.93
2018-08-25T22:21:32.329Z,12.50
2018-08-25T22:24:01.926Z,12.37
2018-08-25T22:26:31.403Z,14.13
2018-08-25T22:29:00.199Z,12.87
2018-08-25T22:31:29.395Z,13.03
2018-08-25T22:33:58.810Z,14.03
2018-08-25T22:36:27.806Z,11.70
2018-08-25T22:38:56.820Z,12.83
2018-08-25T22:41:25.885Z,14.07
2018-08-25T22:43:54.751Z,14.17
2018-08-25T22:46:24.720Z,12.43
2018-08-25T22:48:53.844Z,13.43
2018-08-25T22:51:23.740Z,12.13
2018-08-25T22:53:52.600Z,15.13
2018-08-25T22:56:21.292Z,13.30
2018-08-25T22:58:50.892Z,13.20
2018-08-25T23:01:19.828Z,14.00
2018-08-25T23:03:49.245Z,11.33
2018-08-25T23:06:18.195Z,11.20
2018-08-25T23:08:47.236Z,13.10
2018-08-25T23:11:15.900Z,14.57
2018-08-25T23:13:44.671Z,14.30
2018-08-25T23:16:14.484Z,14.23
2018-08-25T23:18:44.214Z,13.13
2018-08-25T23:21:14.337Z,14.10
2018-08-25T23:23:43.081Z,12.47
2018-08-25T23:26:11.977Z,13.00
2018-08-25T23:28:40.791Z,11.40
2018-08-25T23:31:09.778Z,15.93
2018-08-25T23:33:38.500Z,10.87
2018-08-25T23:36:07.554Z,12.60
2018-08-25T23:38:38.291Z,12.73
2018-08-25T23:41:07.794Z,10.00
2018-08-25T23:43:37.872Z,9.03
2018-08-25T23:46:06.728Z,10.00
2018-08-25T23:48:36.235Z,11.43
2018-08-25T23:51:05.732Z,10.10
2018-08-25T23:53:34.766Z,9.50
2018-08-25T23:56:04.223Z,9.60
2018-08-25T23:58:33.667Z,12.20
